createdAt,value
2022-11-04T00:01:49.777Z,68.50
2022-11-04T00:04:23.787Z,68.65
2022-11-04T00:06:57.372Z,68.61
2022-11-04T00:09:30.973Z,68.58
2022-11-04T00:12:21.047Z,68.77
2022-11-04T00:14:54.316Z,68.90
2022-11-04T00:17:26.776Z,68.84
2022-11-04T00:20:16.738Z,68.70
2022-11-04T00:23:09.047Z,68.95
2022-11-04T00:26:00.564Z,68.98
2022-11-04T00:28:44.524Z,68.99
2022-11-04T00:31:34.627Z,69.20
2022-11-04T00:34:06.887Z,69.37
2022-11-04T00:36:38.864Z,69.56
2022-11-04T00:39:11.034Z,69.60
2022-11-04T00:41:43.097Z,69.67
2022-11-04T00:44:15.280Z,69.72
2022-11-04T00:46:47.638Z,69.72
2022-11-04T00:49:19.733Z,69.70
2022-11-04T00:51:51.900Z,69.57
2022-11-04T00:54:24.232Z,69.85
2022-11-04T00:56:56.491Z,69.89
2022-11-04T00:59:28.692Z,69.83
2022-11-04T01:02:01.107Z,69.88
2022-11-04T01:04:33.829Z,69.93
2022-11-04T01:07:05.952Z,69.90
2022-11-04T01:09:38.145Z,69.84
2022-11-04T01:12:10.444Z,69.82
2022-11-04T01:14:42.628Z,69.81
2022-11-04T01:17:14.736Z,70.03
2022-11-04T01:19:46.885Z,69.96
2022-11-04T01:22:19.037Z,70.05
2022-11-04T01:24:51.489Z,69.99
2022-11-04T01:27:24.054Z,69.90
2022-11-04T01:29:56.111Z,70.02
2022-11-04T01:32:28.566Z,70.04
2022-11-04T01:35:00.628Z,70.00
2022-11-04T01:37:32.856Z,69.77
2022-11-04T01:40:05.338Z,69.97
2022-11-04T01:42:37.505Z,70.00
2022-11-04T01:45:17.259Z,70.15
2022-11-04T01:47:56.662Z,70.12
2022-11-04T01:50:31.190Z,70.09
2022-11-04T01:53:09.020Z,70.17
2022-11-04T01:55:45.937Z,69.93
2022-11-04T01:58:22.013Z,69.93
2022-11-04T02:00:54.454Z,70.08
2022-11-04T02:03:31.997Z,70.14
2022-11-04T02:06:05.788Z,70.21
2022-11-04T02:08:39.351Z,70.21
2022-11-04T02:11:11.743Z,69.90
2022-11-04T02:13:44.444Z,69.91
2022-11-04T02:16:26.026Z,69.95
2022-11-04T02:19:11.868Z,69.98
2022-11-04T02:22:11.455Z,70.04
2022-11-04T02:24:58.942Z,69.97
2022-11-04T02:27:49.281Z,70.14
2022-11-04T02:30:22.968Z,70.26
2022-11-04T02:33:17.275Z,70.11
2022-11-04T02:35:58.644Z,70.03
2022-11-04T02:38:39.854Z,70.31
2022-11-04T02:41:18.450Z,70.19
2022-11-04T02:44:00.548Z,69.96
2022-11-04T02:46:38.882Z,70.45
2022-11-04T02:49:15.824Z,70.43
2022-11-04T02:51:54.024Z,70.82
2022-11-04T02:54:30.176Z,70.72
2022-11-04T02:57:05.504Z,70.74
2022-11-04T02:59:41.218Z,70.64
2022-11-04T03:02:17.490Z,70.69
2022-11-04T03:04:53.175Z,70.64
2022-11-04T03:07:28.913Z,71.01
2022-11-04T03:10:06.563Z,71.30
2022-11-04T03:12:44.437Z,71.57
2022-11-04T03:15:22.107Z,71.27
2022-11-04T03:17:59.504Z,71.55
2022-11-04T03:20:33.574Z,71.92
2022-11-04T03:23:05.799Z,71.70
2022-11-04T03:25:42.515Z,71.79
2022-11-04T03:28:26.160Z,71.78
2022-11-04T03:31:03.434Z,71.78
2022-11-04T03:33:42.757Z,71.57
2022-11-04T03:36:15.096Z,71.94
2022-11-04T03:38:47.729Z,71.75
2022-11-04T03:41:29.752Z,71.56
2022-11-04T03:44:02.349Z,71.48
2022-11-04T03:46:35.110Z,71.49
2022-11-04T03:49:09.168Z,71.40
2022-11-04T03:51:41.642Z,71.22
2022-11-04T03:54:14.714Z,71.00
2022-11-04T03:57:03.522Z,71.09
2022-11-04T03:59:55.786Z,71.04
2022-11-04T04:02:36.959Z,71.41
2022-11-04T04:05:17.822Z,71.23
2022-11-04T04:07:55.154Z,71.16
2022-11-04T04:10:40.741Z,71.08
2022-11-04T04:13:30.085Z,70.91
2022-11-04T04:16:08.374Z,70.94
2022-11-04T04:18:54.032Z,70.94
2022-11-04T04:21:35.621Z,70.65
2022-11-04T04:24:29.126Z,70.73
2022-11-04T04:27:20.407Z,70.75
2022-11-04T04:29:54.500Z,70.62
2022-11-04T04:32:31.249Z,70.55
2022-11-04T04:35:21.708Z,70.54
2022-11-04T04:38:16.884Z,70.59
2022-11-04T04:41:10.525Z,70.47
2022-11-04T04:44:01.992Z,70.71
2022-11-04T04:46:34.787Z,70.74
2022-11-04T04:49:10.775Z,70.53
2022-11-04T04:51:45.802Z,70.49
2022-11-04T04:54:18.161Z,70.58
2022-11-04T04:56:50.191Z,70.50
2022-11-04T04:59:22.192Z,70.68
2022-11-04T05:01:54.539Z,70.57
2022-11-04T05:04:26.887Z,70.90
2022-11-04T05:06:59.148Z,70.96
2022-11-04T05:09:31.600Z,71.11
2022-11-04T05:12:04.116Z,71.40
2022-11-04T05:14:36.156Z,71.45
2022-11-04T05:17:08.273Z,71.73
2022-11-04T05:19:40.671Z,71.83
2022-11-04T05:22:12.937Z,72.02
2022-11-04T05:24:44.849Z,71.87
2022-11-04T05:27:16.957Z,72.01
2022-11-04T05:29:49.054Z,72.33
2022-11-04T05:32:21.087Z,72.35
2022-11-04T05:34:53.200Z,72.33
2022-11-04T05:37:25.722Z,72.79
2022-11-04T05:39:58.271Z,72.49
2022-11-04T05:42:30.708Z,72.32
2022-11-04T05:45:02.765Z,72.18
2022-11-04T05:47:34.934Z,72.00
2022-11-04T05:50:07.927Z,71.87
2022-11-04T05:52:40.053Z,71.87
2022-11-04T05:55:12.712Z,71.79
2022-11-04T05:57:44.861Z,71.80
2022-11-04T06:00:17.852Z,72.11
2022-11-04T06:02:50.172Z,72.26
2022-11-04T06:05:22.367Z,72.73
2022-11-04T06:07:55.346Z,72.80
2022-11-04T06:10:27.899Z,72.87
2022-11-04T06:13:00.256Z,72.90
2022-11-04T06:15:32.408Z,72.87
2022-11-04T06:18:04.873Z,73.20
2022-11-04T06:20:37.097Z,73.45
2022-11-04T06:23:09.220Z,73.51
2022-11-04T06:25:41.286Z,73.54
2022-11-04T06:28:13.724Z,73.46
2022-11-04T06:30:45.809Z,73.65
2022-11-04T06:33:18.368Z,73.72
2022-11-04T06:35:50.697Z,73.57
2022-11-04T06:38:25.561Z,74.05
2022-11-04T06:40:58.628Z,74.02
2022-11-04T06:43:31.361Z,73.83
2022-11-04T06:46:05.002Z,73.37
2022-11-04T06:48:37.317Z,73.44
2022-11-04T06:51:09.658Z,73.52
2022-11-04T06:53:41.989Z,73.35
2022-11-04T06:56:14.129Z,73.26
2022-11-04T06:58:48.929Z,73.41
2022-11-04T07:01:22.037Z,73.47
2022-11-04T07:03:56.011Z,73.45
2022-11-04T07:06:29.209Z,73.58
2022-11-04T07:09:05.364Z,73.60
2022-11-04T07:11:37.789Z,73.86
2022-11-04T07:14:10.381Z,73.83
2022-11-04T07:16:42.960Z,73.90
2022-11-04T07:19:15.274Z,73.75
2022-11-04T07:21:47.851Z,73.76
2022-11-04T07:24:21.396Z,73.86
2022-11-04T07:26:55.330Z,74.03
2022-11-04T07:29:27.463Z,74.00
2022-11-04T07:31:59.469Z,74.07
2022-11-04T07:34:31.536Z,74.46
2022-11-04T07:37:03.684Z,74.54
2022-11-04T07:39:36.047Z,74.60
2022-11-04T07:42:09.659Z,74.40
2022-11-04T07:44:42.027Z,74.40
2022-11-04T07:47:14.480Z,74.22
2022-11-04T07:49:50.788Z,74.23
2022-11-04T07:52:22.945Z,74.13
2022-11-04T07:54:55.940Z,74.39
2022-11-04T07:57:28.094Z,74.49
2022-11-04T08:00:00.259Z,74.64
2022-11-04T08:02:35.181Z,74.47
2022-11-04T08:05:09.461Z,73.29
2022-11-04T08:07:42.143Z,73.45
2022-11-04T08:10:14.764Z,73.59
2022-11-04T08:12:48.325Z,73.73
2022-11-04T08:15:20.846Z,73.08
2022-11-04T08:17:52.973Z,73.21
2022-11-04T08:20:25.907Z,73.47
2022-11-04T08:22:59.844Z,72.84
2022-11-04T08:25:32.182Z,72.28
2022-11-04T08:28:04.626Z,71.97
2022-11-04T08:30:36.890Z,71.62
2022-11-04T08:33:09.183Z,72.21
2022-11-04T08:35:42.956Z,72.17
2022-11-04T08:38:16.900Z,72.11
2022-11-04T08:40:49.230Z,72.39
2022-11-04T08:43:21.863Z,72.09
2022-11-04T08:45:55.069Z,72.32
2022-11-04T08:48:27.516Z,72.34
2022-11-04T08:51:00.722Z,72.40
2022-11-04T08:53:32.821Z,72.78
2022-11-04T08:56:13.050Z,73.07
2022-11-04T08:58:45.797Z,73.51
2022-11-04T09:01:18.303Z,72.85
2022-11-04T09:03:51.369Z,72.20
2022-11-04T09:06:26.950Z,71.37
2022-11-04T09:09:03.880Z,71.86
2022-11-04T09:11:39.802Z,71.93
2022-11-04T09:14:12.648Z,71.98
2022-11-04T09:16:45.548Z,71.42
2022-11-04T09:19:17.633Z,72.12
2022-11-04T09:21:49.776Z,72.52
2022-11-04T09:24:22.290Z,72.78
2022-11-04T09:26:54.359Z,72.30
2022-11-04T09:29:26.716Z,71.92
2022-11-04T09:31:59.359Z,72.09
2022-11-04T09:34:32.425Z,71.83
2022-11-04T09:37:04.883Z,71.85
2022-11-04T09:39:37.166Z,72.02
2022-11-04T09:42:21.819Z,71.90
2022-11-04T09:45:21.266Z,72.16
2022-11-04T09:47:58.169Z,72.22
2022-11-04T09:50:33.068Z,71.68
2022-11-04T09:53:11.112Z,72.10
2022-11-04T09:55:50.373Z,71.81
2022-11-04T09:58:22.937Z,71.50
2022-11-04T10:01:02.747Z,71.17
2022-11-04T10:03:47.315Z,71.33
2022-11-04T10:06:45.773Z,71.45
2022-11-04T10:09:27.137Z,72.23
2022-11-04T10:12:13.773Z,71.70
2022-11-04T10:15:01.219Z,71.30
2022-11-04T10:17:51.717Z,71.05
2022-11-04T10:20:35.141Z,70.84
2022-11-04T10:23:22.038Z,70.98
2022-11-04T10:26:01.004Z,70.87
2022-11-04T10:28:39.822Z,71.01
2022-11-04T10:31:16.614Z,70.91
2022-11-04T10:33:53.551Z,69.36
2022-11-04T10:36:27.324Z,68.74
2022-11-04T10:39:00.214Z,68.35
2022-11-04T10:41:36.871Z,68.88
2022-11-04T10:44:12.473Z,68.83
2022-11-04T10:46:53.456Z,69.20
2022-11-04T10:50:00.107Z,69.61
2022-11-04T10:52:37.988Z,69.14
2022-11-04T10:55:21.772Z,69.34
2022-11-04T10:57:57.429Z,69.28
2022-11-04T11:00:39.119Z,69.31
2022-11-04T11:03:26.581Z,68.93
2022-11-04T11:06:16.941Z,69.18
2022-11-04T11:08:49.969Z,68.85
2022-11-04T11:11:38.592Z,68.81
2022-11-04T11:14:32.447Z,68.61
2022-11-04T11:17:22.724Z,68.45
2022-11-04T11:20:00.424Z,68.88
2022-11-04T11:22:37.735Z,68.89
2022-11-04T11:25:28.580Z,69.38
2022-11-04T11:28:03.168Z,69.06
2022-11-04T11:30:42.147Z,69.35
2022-11-04T11:33:22.227Z,69.58
2022-11-04T11:35:57.805Z,68.85
2022-11-04T11:38:31.567Z,67.85
2022-11-04T11:41:24.441Z,68.03
2022-11-04T11:44:00.285Z,68.89
2022-11-04T11:46:35.074Z,68.60
2022-11-04T11:49:06.607Z,67.94
2022-11-04T11:51:43.694Z,67.93
2022-11-04T11:54:28.789Z,68.18
2022-11-04T11:57:15.234Z,68.18
2022-11-04T12:02:53.343Z,68.09
2022-11-04T12:11:45.809Z,67.87
2022-11-04T12:14:23.951Z,67.93
2022-11-04T12:17:05.857Z,67.62
2022-11-04T12:19:51.373Z,67.35
2022-11-04T12:22:34.503Z,67.81
2022-11-04T12:25:17.119Z,67.12
2022-11-04T12:27:59.222Z,66.99
2022-11-04T12:30:38.496Z,67.38
2022-11-04T12:33:25.604Z,67.09
2022-11-04T12:36:12.905Z,67.44
2022-11-04T12:39:03.646Z,67.55
2022-11-04T12:42:19.134Z,67.83
2022-11-04T12:44:47.654Z,67.92
2022-11-04T12:47:34.370Z,68.45
2022-11-04T12:50:42.791Z,68.61
2022-11-04T12:53:43.089Z,68.09
2022-11-04T12:56:18.854Z,68.49
2022-11-04T12:59:10.942Z,69.72
2022-11-04T13:01:48.133Z,69.59
2022-11-04T13:04:24.633Z,68.74
2022-11-04T13:07:02.064Z,69.02
2022-11-04T13:09:38.980Z,69.21
2022-11-04T13:12:18.549Z,69.00
2022-11-04T13:14:54.501Z,68.83
2022-11-04T13:17:30.819Z,69.58
2022-11-04T13:20:06.570Z,69.54
2022-11-04T13:22:40.481Z,69.36
2022-11-04T13:25:19.068Z,69.45
2022-11-04T13:27:51.650Z,70.41
2022-11-04T13:30:32.404Z,70.87
2022-11-04T13:33:13.167Z,70.97
2022-11-04T13:35:54.057Z,70.90
2022-11-04T13:38:33.801Z,70.41
2022-11-04T13:41:29.797Z,70.95
2022-11-04T13:44:04.926Z,71.66
2022-11-04T13:46:37.386Z,71.17
2022-11-04T13:49:23.683Z,70.82
2022-11-04T13:52:08.499Z,71.40
2022-11-04T13:54:44.377Z,72.12
2022-11-04T13:57:20.164Z,72.30
2022-11-04T14:00:24.344Z,71.93
2022-11-04T14:02:58.861Z,71.69
2022-11-04T14:06:08.584Z,71.92
2022-11-04T14:09:17.954Z,72.14
2022-11-04T14:12:35.663Z,72.14
2022-11-04T14:15:17.028Z,72.61
2022-11-04T14:18:27.440Z,72.80
2022-11-04T14:21:08.195Z,72.96
2022-11-04T14:23:42.184Z,73.07
2022-11-04T14:26:16.636Z,73.67
2022-11-04T14:29:01.348Z,73.46
2022-11-04T14:31:40.278Z,73.75
2022-11-04T14:34:27.918Z,73.29
2022-11-04T14:37:01.903Z,73.83
2022-11-04T14:39:40.081Z,73.67
2022-11-04T14:42:15.748Z,73.78
2022-11-04T14:44:51.007Z,74.24
2022-11-04T14:47:27.694Z,74.34
2022-11-04T14:50:08.718Z,74.28
2022-11-04T14:52:50.419Z,74.91
2022-11-04T14:55:25.404Z,75.24
2022-11-04T14:58:19.572Z,75.26
2022-11-04T15:00:59.653Z,75.22
2022-11-04T15:06:58.352Z,75.33
2022-11-04T15:09:26.579Z,75.29
2022-11-04T15:12:25.588Z,75.47
2022-11-04T15:14:59.556Z,75.39
2022-11-04T15:17:34.187Z,75.49
2022-11-04T15:20:07.922Z,75.59
2022-11-04T15:22:43.618Z,75.75
2022-11-04T15:25:15.657Z,75.51
2022-11-04T15:27:48.416Z,75.62
2022-11-04T15:30:24.833Z,75.48
2022-11-04T15:33:00.043Z,75.68
2022-11-04T15:35:34.383Z,75.70
2022-11-04T15:38:06.605Z,75.98
2022-11-04T15:40:39.829Z,75.99
2022-11-04T15:43:12.591Z,75.71
2022-11-04T15:45:55.795Z,75.84
2022-11-04T15:48:34.037Z,75.65
2022-11-04T15:51:16.002Z,75.82
2022-11-04T15:53:54.835Z,76.08
2022-11-04T15:56:29.700Z,75.94
2022-11-04T15:59:01.529Z,76.19
2022-11-04T16:01:34.213Z,76.15
2022-11-04T16:04:08.813Z,76.18
2022-11-04T16:06:42.746Z,76.79
2022-11-04T16:09:28.915Z,76.60
2022-11-04T16:12:13.746Z,76.73
2022-11-04T16:14:55.763Z,76.69
2022-11-04T16:17:29.460Z,76.71
2022-11-04T16:20:04.384Z,76.58
2022-11-04T16:22:39.693Z,76.40
2022-11-04T16:25:23.582Z,76.19
2022-11-04T16:27:56.458Z,76.19
2022-11-04T16:30:30.235Z,76.47
2022-11-04T16:33:12.749Z,76.38
2022-11-04T16:35:45.629Z,76.37
2022-11-04T16:38:18.081Z,76.34
2022-11-04T16:40:51.625Z,76.24
2022-11-04T16:43:25.445Z,75.59
2022-11-04T16:45:57.720Z,75.52
2022-11-04T16:48:30.297Z,75.86
2022-11-04T16:51:03.097Z,75.96
2022-11-04T16:53:35.560Z,76.13
2022-11-04T16:56:09.684Z,75.93
2022-11-04T16:59:06.317Z,76.18
2022-11-04T17:01:39.999Z,76.48
2022-11-04T17:04:12.323Z,76.25
2022-11-04T17:06:46.947Z,76.56
2022-11-04T17:09:24.362Z,76.60
2022-11-04T17:11:56.496Z,76.57
2022-11-04T17:14:28.697Z,76.46
2022-11-04T17:17:00.964Z,76.53
2022-11-04T17:19:34.924Z,76.30
2022-11-04T17:22:09.953Z,76.31
2022-11-04T17:24:42.398Z,76.32
2022-11-04T17:27:15.495Z,76.52
2022-11-04T17:29:47.831Z,76.24
2022-11-04T17:32:21.259Z,76.35
2022-11-04T17:34:53.984Z,76.54
2022-11-04T17:37:26.232Z,76.52
2022-11-04T17:39:58.336Z,76.66
2022-11-04T17:42:48.280Z,76.75
2022-11-04T17:45:20.717Z,76.77
2022-11-04T17:47:52.895Z,76.76
2022-11-04T17:50:25.378Z,76.73
2022-11-04T17:52:58.392Z,76.89
2022-11-04T17:55:30.970Z,76.99
2022-11-04T17:58:03.557Z,77.13
2022-11-04T18:00:36.611Z,77.46
2022-11-04T18:03:12.493Z,77.51
2022-11-04T18:05:45.582Z,77.37
2022-11-04T18:08:18.102Z,77.67
2022-11-04T18:10:50.517Z,77.87
2022-11-04T18:13:25.324Z,77.84
2022-11-04T18:15:56.209Z,77.95
2022-11-04T18:18:28.758Z,78.11
2022-11-04T18:21:07.336Z,78.18
2022-11-04T18:23:39.812Z,78.21
2022-11-04T18:26:13.177Z,78.33
2022-11-04T18:28:45.545Z,78.13
2022-11-04T18:31:24.591Z,78.30
2022-11-04T18:34:00.184Z,78.46
2022-11-04T18:36:34.744Z,78.76
2022-11-04T18:39:08.693Z,78.68
2022-11-04T18:41:41.090Z,78.89
2022-11-04T18:44:17.688Z,79.04
2022-11-04T18:46:51.074Z,79.16
2022-11-04T18:49:23.560Z,79.17
2022-11-04T18:51:55.852Z,79.14
2022-11-04T18:54:29.135Z,79.23
2022-11-04T18:57:01.736Z,79.33
2022-11-04T18:59:34.607Z,79.38
2022-11-04T19:02:08.415Z,79.67
2022-11-04T19:04:41.648Z,79.49
2022-11-04T19:07:15.002Z,79.43
2022-11-04T19:09:48.797Z,79.99
2022-11-04T19:12:39.438Z,80.22
2022-11-04T19:15:13.380Z,80.19
2022-11-04T19:17:46.009Z,80.29
2022-11-04T19:20:34.868Z,80.09
2022-11-04T19:23:11.078Z,79.85
2022-11-04T19:25:44.411Z,79.61
2022-11-04T19:28:35.071Z,79.90
2022-11-04T19:31:12.908Z,79.47
2022-11-04T19:33:46.082Z,79.38
2022-11-04T19:36:21.814Z,79.52
2022-11-04T19:38:56.672Z,79.58
2022-11-04T19:41:47.071Z,79.78
2022-11-04T19:44:38.585Z,79.66
2022-11-04T19:47:12.114Z,80.17
2022-11-04T19:49:45.605Z,80.05
2022-11-04T19:52:38.614Z,80.17
2022-11-04T19:55:14.119Z,79.91
2022-11-04T19:57:47.301Z,80.09
2022-11-04T20:00:21.297Z,80.15
2022-11-04T20:02:54.891Z,79.98
2022-11-04T20:05:28.925Z,80.34
2022-11-04T20:08:06.236Z,80.28
2022-11-04T20:10:42.101Z,80.21
2022-11-04T20:13:36.998Z,80.37
2022-11-04T20:16:18.402Z,80.32
2022-11-04T20:18:53.016Z,80.56
2022-11-04T20:21:28.565Z,80.44
2022-11-04T20:24:02.871Z,80.60
2022-11-04T20:26:37.625Z,80.96
2022-11-04T20:29:08.912Z,80.84
2022-11-04T20:31:42.591Z,81.00
2022-11-04T20:34:16.332Z,80.84
2022-11-04T20:36:48.962Z,80.76
2022-11-04T20:39:23.437Z,81.16
2022-11-04T20:41:56.531Z,81.55
2022-11-04T20:44:29.231Z,81.58
2022-11-04T20:47:02.655Z,81.83
2022-11-04T20:49:35.431Z,81.80
2022-11-04T20:52:08.170Z,81.90
2022-11-04T20:54:40.705Z,81.98
2022-11-04T20:57:13.035Z,81.92
2022-11-04T20:59:45.390Z,82.13
2022-11-04T21:02:18.434Z,82.05
2022-11-04T21:04:51.282Z,81.77
2022-11-04T21:07:24.227Z,82.06
2022-11-04T21:09:57.409Z,81.93
2022-11-04T21:12:29.759Z,82.03
2022-11-04T21:15:04.387Z,82.08
2022-11-04T21:17:40.082Z,82.09
2022-11-04T21:20:13.771Z,82.09
2022-11-04T21:22:46.361Z,82.12
2022-11-04T21:25:18.954Z,81.99
2022-11-04T21:27:51.219Z,81.96
2022-11-04T21:30:27.718Z,82.04
2022-11-04T21:33:02.913Z,82.07
2022-11-04T21:35:37.203Z,81.79
2022-11-04T21:38:11.763Z,81.76
2022-11-04T21:40:46.483Z,81.99
2022-11-04T21:43:19.611Z,82.08
2022-11-04T21:45:52.198Z,82.11
2022-11-04T21:48:24.622Z,81.93
2022-11-04T21:50:57.182Z,81.79
2022-11-04T21:53:30.868Z,81.63
2022-11-04T21:56:08.466Z,81.88
2022-11-04T21:58:40.877Z,81.81
2022-11-04T22:01:15.335Z,81.81
2022-11-04T22:03:52.029Z,81.89
2022-11-04T22:06:26.692Z,82.06
2022-11-04T22:09:03.623Z,82.21
2022-11-04T22:11:39.252Z,82.16
2022-11-04T22:14:14.085Z,82.25
2022-11-04T22:16:44.603Z,82.32
2022-11-04T22:19:16.654Z,82.15
2022-11-04T22:21:49.484Z,82.10
2022-11-04T22:24:21.648Z,81.89
2022-11-04T22:26:53.987Z,82.16
2022-11-04T22:29:26.947Z,82.04
2022-11-04T22:31:59.120Z,82.26
2022-11-04T22:34:31.477Z,82.31
2022-11-04T22:37:03.611Z,82.32
2022-11-04T22:39:35.932Z,82.87
2022-11-04T22:42:08.882Z,82.99
2022-11-04T22:44:41.052Z,83.29
2022-11-04T22:47:13.465Z,83.40
2022-11-04T22:49:45.635Z,83.76
2022-11-04T22:52:18.038Z,83.75
2022-11-04T22:54:50.301Z,83.78
2022-11-04T22:57:22.573Z,83.58
2022-11-04T22:59:54.664Z,83.91
2022-11-04T23:02:29.985Z,84.01
2022-11-04T23:05:05.022Z,83.82
2022-11-04T23:07:37.101Z,83.93
2022-11-04T23:10:28.207Z,83.82
2022-11-04T23:13:18.377Z,83.82
2022-11-04T23:16:09.492Z,83.63
2022-11-04T23:18:45.148Z,83.91
2022-11-04T23:21:37.563Z,83.91
2022-11-04T23:24:28.465Z,83.79
2022-11-04T23:27:00.838Z,83.43
2022-11-04T23:29:50.542Z,83.52
2022-11-04T23:32:27.167Z,83.44
2022-11-04T23:35:17.525Z,83.39
2022-11-04T23:37:50.486Z,83.36
2022-11-04T23:40:22.668Z,83.42
2022-11-04T23:42:54.836Z,83.24
2022-11-04T23:45:46.037Z,83.02
2022-11-04T23:48:35.710Z,82.89
2022-11-04T23:51:28.630Z,83.02
2022-11-04T23:54:18.374Z,83.25
2022-11-04T23:57:08.396Z,83.48
